Anajatuba, Brazil
Current Conditions -  °F | °C
As of 1:00 PM on Thursday 23 Oct 2014 (Local Time) from SBSL Reporting Station
Scattered Clouds Scattered Clouds  
Wind Chill: 31°   Ceiling: Unl
Heat Index: 33°   Visibility: 6mi
Dew Point: 20°   Wind: 13mph
Humidity: 52%   Direction: 50°NE
Pressure: 29.85"   Gusts: NA
Location:  3.26°S, 44.62°W
Report Text: SBSL 231600Z 05011KT 020V090 9999 SCT017 FEW020TCU 31/20 Q1011
Loading
Personal Weather Stations






























Interactive Weather Map
Tropical Storm Tracking
New forecast layout! Learn more

10-Day Weather Forecast

Advertisements
Track Severe Weather on mobile